Time;durP1;ratioP1;P1;durP2;ratioP2;P2;SDS_P1;SDS_P2;PMS_P1;PMS_P2;Temp;Humidity;BMP_temperature;BMP_pressure;BME280_temperature;BME280_humidity;BME280_pressure;Samples;Min_cycle;Max_cycle;Signal;HPM_P1;HPM_P2
2023/12/19 00:02:34;;;;;;;;;;;;;;;8.24;100.00;99536.66;68014;1275;1016253;-76
2023/12/19 00:05:37;;;;;;;;;;;;;;;8.34;100.00;99540.11;68028;1275;1016259;-76
2023/12/19 00:08:39;;;;;;;;;;;;;;;8.23;100.00;99539.15;68048;1275;1016375;-75
2023/12/19 00:11:42;;;;;;;;;;;;;;;8.17;100.00;99547.93;67984;1275;1016435;-76
2023/12/19 00:14:44;;;;;;;;;;;;;;;8.17;100.00;99549.65;68053;1275;1019463;-75
2023/12/19 00:17:47;;;;;;;;;;;;;;;8.27;100.00;99531.29;68035;1275;1016267;-75
2023/12/19 00:20:52;;;;;;;;;;;;;;;8.29;100.00;99527.73;68057;1275;1017099;-75
2023/12/19 00:23:56;;;;;;;;;;;;;;;8.25;100.00;99525.98;68007;1275;1016400;-75
2023/12/19 00:26:59;;;;;;;;;;;;;;;8.22;100.00;99532.05;68026;1275;1016133;-75
2023/12/19 00:30:01;;;;;;;;;;;;;;;8.16;100.00;99534.71;68055;1275;1015821;-75
2023/12/19 00:33:05;;;;;;;;;;;;;;;8.00;100.00;99539.17;68009;1275;1016260;-76
2023/12/19 00:36:08;;;;;;;;;;;;;;;7.96;100.00;99552.37;68021;1275;1016484;-75
2023/12/19 00:39:10;;;;;;;;;;;;;;;8.05;100.00;99548.90;67994;1275;1016259;-75
2023/12/19 00:42:13;;;;;;;;;;;;;;;8.11;100.00;99553.90;68039;1275;1016110;-75
2023/12/19 00:45:16;;;;;;;;;;;;;;;8.02;100.00;99550.58;68078;1275;1016246;-75
2023/12/19 00:48:18;;;;;;;;;;;;;;;8.02;100.00;99542.07;67972;1275;1016060;-74
2023/12/19 00:51:21;;;;;;;;;;;;;;;8.12;100.00;99535.02;68039;1275;1016239;-76
2023/12/19 00:54:23;;;;;;;;;;;;;;;8.13;100.00;99531.34;68062;1275;1015747;-74
2023/12/19 00:57:26;;;;;;;;;;;;;;;8.10;100.00;99528.69;68022;1275;1016204;-76
2023/12/19 01:00:29;;;;;;;;;;;;;;;8.07;100.00;99522.02;68013;1275;1016179;-76
2023/12/19 01:03:31;;;;;;;;;;;;;;;8.01;100.00;99514.91;68077;1275;1016407;-76
2023/12/19 01:06:34;;;;;;;;;;;;;;;8.11;100.00;99505.83;68009;1275;1016358;-75
2023/12/19 01:09:37;;;;;;;;;;;;;;;8.16;100.00;99497.77;68024;1275;1016471;-76
2023/12/19 01:12:39;;;;;;;;;;;;;;;8.29;100.00;99495.52;68061;1275;1016395;-76
2023/12/19 01:15:42;;;;;;;;;;;;;;;8.27;100.00;99476.27;68046;1275;1016212;-76
2023/12/19 01:18:45;;;;;;;;;;;;;;;8.10;100.00;99477.66;67980;1275;1016284;-76
2023/12/19 01:21:47;;;;;;;;;;;;;;;8.26;100.00;99489.19;68044;1275;1016147;-74
2023/12/19 01:24:50;;;;;;;;;;;;;;;8.20;100.00;99494.83;68031;1275;1016435;-75
2023/12/19 01:27:52;;;;;;;;;;;;;;;8.13;100.00;99490.05;68009;1275;1016425;-75
2023/12/19 01:30:55;;;;;;;;;;;;;;;8.08;100.00;99487.12;68006;1275;1016440;-75
2023/12/19 01:33:58;;;;;;;;;;;;;;;8.14;100.00;99491.60;68054;1275;1018737;-75
2023/12/19 01:37:00;;;;;;;;;;;;;;;8.26;100.00;99494.77;68065;1275;1016211;-76
2023/12/19 01:40:04;;;;;;;;;;;;;;;8.33;100.00;99492.55;67984;1275;1016350;-76
2023/12/19 01:43:07;;;;;;;;;;;;;;;8.32;100.00;99487.19;67967;1275;1016474;-75
2023/12/19 01:46:10;;;;;;;;;;;;;;;8.33;100.00;99482.13;68050;1275;1016640;-76
2023/12/19 01:49:12;;;;;;;;;;;;;;;8.43;100.00;99471.60;68012;1275;1018000;-75
2023/12/19 01:52:15;;;;;;;;;;;;;;;8.44;100.00;99462.84;67998;1275;1016487;-76
2023/12/19 01:55:17;;;;;;;;;;;;;;;8.42;100.00;99451.59;68008;1275;1016350;-76
2023/12/19 01:58:20;;;;;;;;;;;;;;;8.39;100.00;99449.27;68026;1275;1016480;-76
2023/12/19 02:01:23;;;;;;;;;;;;;;;8.46;100.00;99450.59;68022;1275;1016600;-75
2023/12/19 02:04:25;;;;;;;;;;;;;;;8.41;100.00;99443.83;68007;1275;1016329;-75
2023/12/19 02:07:29;;;;;;;;;;;;;;;8.39;100.00;99454.34;68057;1275;1016431;-75
2023/12/19 02:10:32;;;;;;;;;;;;;;;8.46;100.00;99455.98;68032;1275;1016481;-75
2023/12/19 02:13:34;;;;;;;;;;;;;;;8.36;100.00;99460.90;68065;1275;1018258;-76
2023/12/19 02:16:37;;;;;;;;;;;;;;;8.35;100.00;99476.61;68033;1275;1016421;-76
2023/12/19 02:19:39;;;;;;;;;;;;;;;8.41;100.00;99470.48;67999;1275;1016186;-76
2023/12/19 02:22:42;;;;;;;;;;;;;;;8.48;100.00;99466.52;68067;1275;1016404;-75
2023/12/19 02:25:46;;;;;;;;;;;;;;;8.50;100.00;99466.27;68086;1275;1015723;-75
2023/12/19 02:28:52;;;;;;;;;;;;;;;8.57;100.00;99465.98;68054;1275;1017997;-75
2023/12/19 02:31:55;;;;;;;;;;;;;;;8.51;100.00;99458.38;68014;1275;1016129;-76
2023/12/19 02:34:58;;;;;;;;;;;;;;;8.41;100.00;99448.86;68036;1275;1016155;-76
2023/12/19 02:38:01;;;;;;;;;;;;;;;8.41;100.00;99433.70;68076;1275;1016436;-76
2023/12/19 02:41:03;;;;;;;;;;;;;;;8.50;100.00;99424.61;68028;1275;1016676;-76
2023/12/19 02:44:06;;;;;;;;;;;;;;;8.49;100.00;99415.75;68032;1275;1016479;-76
2023/12/19 02:47:09;;;;;;;;;;;;;;;8.61;100.00;99418.74;68052;1275;1016333;-75
2023/12/19 02:50:11;;;;;;;;;;;;;;;8.71;100.00;99415.67;68031;1275;1016490;-76
2023/12/19 02:53:14;;;;;;;;;;;;;;;8.79;100.00;99399.64;68002;1275;1016277;-75
2023/12/19 02:56:16;;;;;;;;;;;;;;;8.90;100.00;99382.59;68057;1275;1016413;-76
2023/12/19 02:59:19;;;;;;;;;;;;;;;8.96;100.00;99384.08;68039;1275;1016341;-75
2023/12/19 03:02:21;;;;;;;;;;;;;;;8.94;100.00;99381.36;68047;1275;1016427;-76
2023/12/19 03:05:24;;;;;;;;;;;;;;;8.85;100.00;99378.82;68026;1275;1016677;-77
2023/12/19 03:08:26;;;;;;;;;;;;;;;8.79;100.00;99384.84;68002;1275;1016432;-76
2023/12/19 03:11:29;;;;;;;;;;;;;;;8.71;100.00;99400.00;68046;1275;1016487;-74
2023/12/19 03:14:32;;;;;;;;;;;;;;;8.69;100.00;99396.23;68069;1275;1016327;-76
2023/12/19 03:17:34;;;;;;;;;;;;;;;8.62;100.00;99398.64;68003;1275;1016403;-76
2023/12/19 03:20:37;;;;;;;;;;;;;;;8.63;100.00;99400.02;68054;1275;1015802;-75
2023/12/19 03:23:39;;;;;;;;;;;;;;;8.71;100.00;99394.61;68079;1275;1018522;-76
2023/12/19 03:26:42;;;;;;;;;;;;;;;8.73;100.00;99380.95;68026;1275;1016430;-75
2023/12/19 03:29:45;;;;;;;;;;;;;;;8.70;100.00;99372.67;67990;1275;1016548;-76
2023/12/19 03:32:48;;;;;;;;;;;;;;;8.77;100.00;99364.70;68052;1275;1016312;-76
2023/12/19 03:35:51;;;;;;;;;;;;;;;8.79;100.00;99382.38;67987;1275;1016221;-76
2023/12/19 03:38:53;;;;;;;;;;;;;;;8.83;100.00;99378.89;68046;1275;1016196;-75
2023/12/19 03:41:56;;;;;;;;;;;;;;;8.96;100.00;99370.63;68060;1275;1016938;-76
2023/12/19 03:44:58;;;;;;;;;;;;;;;8.98;100.00;99372.83;68030;1275;1016339;-75
2023/12/19 03:48:03;;;;;;;;;;;;;;;9.03;100.00;99361.09;68013;1275;1016096;-75
2023/12/19 03:51:07;;;;;;;;;;;;;;;9.14;100.00;99376.98;68038;1275;1016192;-75
2023/12/19 03:54:11;;;;;;;;;;;;;;;9.18;100.00;99384.83;68019;1275;1016471;-76
2023/12/19 03:57:13;;;;;;;;;;;;;;;9.11;100.00;99381.98;67993;1275;1016115;-76
2023/12/19 04:00:16;;;;;;;;;;;;;;;9.03;100.00;99380.27;68049;1275;1017984;-76
2023/12/19 04:03:18;;;;;;;;;;;;;;;9.03;100.00;99380.60;68005;1275;1016353;-76
2023/12/19 04:06:21;;;;;;;;;;;;;;;9.05;100.00;99381.91;67991;1275;1016002;-75
2023/12/19 04:09:24;;;;;;;;;;;;;;;9.14;100.00;99369.80;68051;1275;1016488;-76
2023/12/19 04:12:26;;;;;;;;;;;;;;;9.24;100.00;99360.48;68007;1275;1016089;-75
2023/12/19 04:15:30;;;;;;;;;;;;;;;9.24;100.00;99347.38;68050;1275;1015970;-76
2023/12/19 04:18:32;;;;;;;;;;;;;;;9.30;100.00;99335.77;68077;1275;1016273;-75
2023/12/19 04:21:36;;;;;;;;;;;;;;;9.26;100.00;99331.39;68033;1275;1016637;-75
2023/12/19 04:24:40;;;;;;;;;;;;;;;9.21;100.00;99335.80;68041;1275;1017216;-76
2023/12/19 04:27:43;;;;;;;;;;;;;;;9.18;100.00;99335.41;68019;1275;1016477;-75
2023/12/19 04:30:45;;;;;;;;;;;;;;;9.10;100.00;99333.87;68007;1275;1016417;-75
2023/12/19 04:33:48;;;;;;;;;;;;;;;9.05;100.00;99340.05;68062;1275;1016094;-75
2023/12/19 04:36:51;;;;;;;;;;;;;;;8.97;100.00;99336.23;67987;1275;1017116;-75
2023/12/19 04:39:54;;;;;;;;;;;;;;;9.03;100.00;99331.06;68055;1275;1016406;-75
2023/12/19 04:42:56;;;;;;;;;;;;;;;9.14;100.00;99325.70;68020;1275;1016262;-75
2023/12/19 04:45:59;;;;;;;;;;;;;;;9.20;100.00;99325.59;68016;1275;1016272;-75
2023/12/19 04:49:02;;;;;;;;;;;;;;;9.07;100.00;99332.11;67976;1275;1018823;-75
2023/12/19 04:52:04;;;;;;;;;;;;;;;9.14;100.00;99327.77;68076;1275;1016412;-76
2023/12/19 04:55:07;;;;;;;;;;;;;;;9.18;100.00;99326.71;68042;1275;1017834;-76
2023/12/19 04:58:10;;;;;;;;;;;;;;;9.10;100.00;99327.94;68017;1275;1016061;-76
2023/12/19 05:01:12;;;;;;;;;;;;;;;9.11;100.00;99330.70;67996;1275;1016240;-75
2023/12/19 05:04:15;;;;;;;;;;;;;;;9.05;100.00;99329.75;68043;1275;1016472;-75
2023/12/19 05:07:17;;;;;;;;;;;;;;;9.07;100.00;99327.76;68022;1275;1016393;-76
2023/12/19 05:10:20;;;;;;;;;;;;;;;9.27;100.00;99330.28;67952;1275;1017376;-75
2023/12/19 05:13:22;;;;;;;;;;;;;;;9.22;100.00;99333.34;68022;1275;1016259;-75
2023/12/19 05:16:26;;;;;;;;;;;;;;;9.08;100.00;99332.58;68050;1275;1016312;-75
2023/12/19 05:19:28;;;;;;;;;;;;;;;9.08;100.00;99332.75;68009;1275;1016253;-76
2023/12/19 05:22:31;;;;;;;;;;;;;;;9.06;100.00;99344.20;68024;1275;1016469;-75
2023/12/19 05:25:34;;;;;;;;;;;;;;;9.08;100.00;99341.85;68075;1275;1016853;-76
2023/12/19 05:28:37;;;;;;;;;;;;;;;9.12;100.00;99335.37;65832;1275;5377423;-76
2023/12/19 05:31:48;;;;;;;;;;;;;;;9.09;100.00;99327.48;67978;1275;1016275;-74
2023/12/19 05:34:50;;;;;;;;;;;;;;;9.14;100.00;99322.73;68011;1275;1016408;-76
2023/12/19 05:37:53;;;;;;;;;;;;;;;9.23;100.00;99317.58;67976;1275;1016512;-76
2023/12/19 05:40:57;;;;;;;;;;;;;;;9.27;100.00;99316.01;68051;1275;1016441;-76
2023/12/19 05:44:00;;;;;;;;;;;;;;;9.36;100.00;99322.73;68043;1275;1016337;-76
2023/12/19 05:47:03;;;;;;;;;;;;;;;9.34;100.00;99329.80;68032;1275;1016543;-76
2023/12/19 05:50:06;;;;;;;;;;;;;;;9.34;100.00;99329.79;68063;1275;1017264;-76
2023/12/19 05:53:09;;;;;;;;;;;;;;;9.38;100.00;99315.45;68082;1275;1016287;-76
2023/12/19 05:56:13;;;;;;;;;;;;;;;9.37;100.00;99315.69;68034;1275;1018770;-75
2023/12/19 05:59:16;;;;;;;;;;;;;;;9.38;100.00;99325.94;68051;1275;1016266;-75
2023/12/19 06:02:20;;;;;;;;;;;;;;;9.45;100.00;99333.29;68054;1275;1017507;-76
2023/12/19 06:05:25;;;;;;;;;;;;;;;9.37;100.00;99345.02;67997;1275;1016588;-80
2023/12/19 06:08:28;;;;;;;;;;;;;;;9.27;100.00;99343.94;68010;1275;1016532;-76
2023/12/19 06:11:30;;;;;;;;;;;;;;;9.24;100.00;99332.55;68041;1275;1016487;-76
2023/12/19 06:14:33;;;;;;;;;;;;;;;9.50;100.00;99319.77;68030;1275;1016300;-76
2023/12/19 06:17:35;;;;;;;;;;;;;;;9.56;100.00;99308.30;68004;1275;1016252;-76
2023/12/19 06:20:39;;;;;;;;;;;;;;;9.52;100.00;99303.59;68051;1275;1016201;-75
2023/12/19 06:23:42;;;;;;;;;;;;;;;9.25;100.00;99294.11;68065;1275;1016086;-76
2023/12/19 06:26:45;;;;;;;;;;;;;;;9.18;100.00;99292.17;67989;1275;1015905;-75
2023/12/19 06:29:48;;;;;;;;;;;;;;;9.00;100.00;99291.98;67990;1275;1018233;-76
2023/12/19 06:32:50;;;;;;;;;;;;;;;8.85;100.00;99291.98;68017;1275;1016503;-76
2023/12/19 06:35:53;;;;;;;;;;;;;;;8.81;100.00;99295.44;67993;1275;1016598;-75
2023/12/19 06:38:55;;;;;;;;;;;;;;;8.70;100.00;99300.86;68021;1275;1016493;-76
2023/12/19 06:41:58;;;;;;;;;;;;;;;8.56;100.00;99306.54;68061;1275;1018096;-76
2023/12/19 06:45:01;;;;;;;;;;;;;;;8.61;100.00;99308.38;68052;1275;1016464;-75
2023/12/19 06:48:03;;;;;;;;;;;;;;;8.60;100.00;99322.36;68016;1275;1016409;-76
2023/12/19 06:51:06;;;;;;;;;;;;;;;8.44;100.00;99324.48;68035;1275;1016108;-76
2023/12/19 06:54:09;;;;;;;;;;;;;;;8.51;100.00;99331.50;68013;1275;1016084;-76
2023/12/19 06:57:12;;;;;;;;;;;;;;;8.56;100.00;99330.42;68022;1275;1016431;-76
2023/12/19 07:00:16;;;;;;;;;;;;;;;8.79;100.00;99336.72;68058;1275;1016327;-75
2023/12/19 07:03:21;;;;;;;;;;;;;;;8.75;100.00;99336.18;68040;1275;1016470;-76
2023/12/19 07:06:23;;;;;;;;;;;;;;;8.60;100.00;99335.44;67961;1275;1018249;-74
2023/12/19 07:09:27;;;;;;;;;;;;;;;8.54;100.00;99341.33;68063;1275;1016131;-75
2023/12/19 07:12:29;;;;;;;;;;;;;;;8.51;100.00;99333.41;68001;1275;1016083;-77
2023/12/19 07:15:53;;;;;;;;;;;;;;;8.57;100.00;99339.98;68024;1275;1016399;-75
2023/12/19 07:18:56;;;;;;;;;;;;;;;8.68;100.00;99333.55;68007;1275;1016470;-76
2023/12/19 07:21:59;;;;;;;;;;;;;;;8.70;100.00;99317.58;68034;1275;1016399;-76
2023/12/19 07:25:02;;;;;;;;;;;;;;;8.73;100.00;99312.58;68037;1275;1016345;-76
2023/12/19 07:28:07;;;;;;;;;;;;;;;8.91;100.00;99313.30;68069;1275;1016349;-74
2023/12/19 07:31:10;;;;;;;;;;;;;;;8.99;100.00;99313.63;68000;1275;1016125;-76
2023/12/19 07:34:13;;;;;;;;;;;;;;;9.15;100.00;99305.92;68062;1275;1016347;-76
2023/12/19 07:37:16;;;;;;;;;;;;;;;9.21;100.00;99295.00;67994;1275;1016280;-76
2023/12/19 07:40:18;;;;;;;;;;;;;;;9.24;100.00;99291.88;67998;1275;1016689;-75
2023/12/19 07:43:21;;;;;;;;;;;;;;;9.15;100.00;99279.94;68078;1275;1016481;-76
2023/12/19 07:46:23;;;;;;;;;;;;;;;9.22;100.00;99277.49;68015;1275;1016496;-76
2023/12/19 07:49:26;;;;;;;;;;;;;;;9.35;100.00;99275.63;67996;1275;1016480;-76
2023/12/19 07:52:29;;;;;;;;;;;;;;;9.47;100.00;99271.42;68041;1275;1016294;-76
2023/12/19 07:55:32;;;;;;;;;;;;;;;9.60;100.00;99263.23;68015;1275;1016368;-76
2023/12/19 07:58:34;;;;;;;;;;;;;;;9.74;100.00;99276.48;68017;1275;1016456;-76
2023/12/19 08:01:37;;;;;;;;;;;;;;;9.92;100.00;99285.23;68033;1275;1016358;-75
2023/12/19 08:04:41;;;;;;;;;;;;;;;9.74;100.00;99289.76;68046;1275;1016733;-75
2023/12/19 08:07:44;;;;;;;;;;;;;;;9.79;100.00;99299.67;68027;1275;1016565;-76
2023/12/19 08:10:46;;;;;;;;;;;;;;;9.71;100.00;99305.67;68004;1275;1016451;-76
2023/12/19 08:13:50;;;;;;;;;;;;;;;9.70;100.00;99304.30;68011;1275;1016434;-76
2023/12/19 08:16:53;;;;;;;;;;;;;;;9.86;100.00;99295.66;67994;1275;1016305;-76
2023/12/19 08:19:55;;;;;;;;;;;;;;;9.98;100.00;99288.25;68030;1275;1016402;-76
2023/12/19 08:22:58;;;;;;;;;;;;;;;10.08;100.00;99287.52;67986;1275;1016442;-76
2023/12/19 08:26:01;;;;;;;;;;;;;;;10.25;100.00;99279.16;67979;1275;1016363;-75
2023/12/19 08:29:03;;;;;;;;;;;;;;;10.37;100.00;99269.80;68039;1275;1016232;-75
2023/12/19 08:32:06;;;;;;;;;;;;;;;10.55;100.00;99265.88;68010;1275;1016404;-75
2023/12/19 08:35:09;;;;;;;;;;;;;;;10.66;100.00;99255.84;68010;1275;1016370;-75
2023/12/19 08:38:11;;;;;;;;;;;;;;;10.82;100.00;99250.24;68033;1275;1016392;-75
2023/12/19 08:41:14;;;;;;;;;;;;;;;10.99;100.00;99243.73;68036;1275;1016487;-76
2023/12/19 08:44:16;;;;;;;;;;;;;;;11.15;100.00;99251.74;68018;1275;1016465;-74
2023/12/19 08:47:19;;;;;;;;;;;;;;;11.29;100.00;99257.78;67987;1275;1016608;-75
2023/12/19 08:50:22;;;;;;;;;;;;;;;11.38;100.00;99250.10;68037;1275;1016135;-75
2023/12/19 08:53:24;;;;;;;;;;;;;;;11.52;100.00;99247.38;67901;1275;1016338;-74
2023/12/19 08:56:27;;;;;;;;;;;;;;;11.74;100.00;99243.13;68003;1275;1016725;-75
2023/12/19 08:59:29;;;;;;;;;;;;;;;11.67;100.00;99243.70;67997;1275;1016309;-75
2023/12/19 09:02:32;;;;;;;;;;;;;;;11.64;100.00;99241.77;67946;1275;1016357;-75
2023/12/19 09:05:34;;;;;;;;;;;;;;;11.70;100.00;99240.52;67965;1275;1015739;-75
2023/12/19 09:08:37;;;;;;;;;;;;;;;11.68;100.00;99235.76;68010;1275;1016459;-75
2023/12/19 09:11:40;;;;;;;;;;;;;;;11.76;100.00;99244.77;68008;1275;1015950;-75
2023/12/19 09:14:42;;;;;;;;;;;;;;;11.87;100.00;99238.14;67986;1275;1016462;-75
2023/12/19 09:17:45;;;;;;;;;;;;;;;11.93;100.00;99228.48;68002;1275;1016486;-75
2023/12/19 09:20:48;;;;;;;;;;;;;;;11.98;99.95;99231.73;67978;1275;1016457;-75
2023/12/19 09:23:51;;;;;;;;;;;;;;;12.07;100.00;99223.33;67984;1275;1016408;-75
2023/12/19 09:26:53;;;;;;;;;;;;;;;12.06;100.00;99221.43;68030;1275;1016475;-75
2023/12/19 09:29:56;;;;;;;;;;;;;;;12.09;100.00;99223.74;68061;1275;1016447;-75
2023/12/19 09:36:40;;;;;;;;;;;;;;;12.66;93.47;99210.00;67697;1275;1016251;-75
2023/12/19 09:39:43;;;;;;;;;;;;;;;12.92;88.64;99205.38;67988;1275;1016422;-76
2023/12/19 09:42:45;;;;;;;;;;;;;;;13.18;85.45;99203.19;68013;1275;1017581;-76
2023/12/19 09:45:48;;;;;;;;;;;;;;;13.37;79.99;99191.41;67995;1275;1016223;-75
2023/12/19 09:48:51;;;;;;;;;;;;;;;13.66;76.48;99188.98;68026;1275;1016424;-75
2023/12/19 09:51:54;;;;;;;;;;;;;;;13.92;73.22;99183.34;68044;1275;1016441;-75
2023/12/19 09:54:56;;;;;;;;;;;;;;;14.19;67.21;99175.84;68045;1275;1016783;-74
2023/12/19 09:57:59;;;;;;;;;;;;;;;14.31;62.39;99161.95;68000;1275;1016417;-75
2023/12/19 10:01:02;;;;;;;;;;;;;;;14.47;60.30;99156.62;68026;1275;1015946;-74
2023/12/19 10:04:13;;;;;;;;;;;;;;;14.55;52.71;99146.52;68027;1275;1016436;-75
2023/12/19 10:07:16;;;;;;;;;;;;;;;14.54;50.51;99138.16;68030;1275;1016423;-75
2023/12/19 10:10:21;;;;;;;;;;;;;;;14.63;50.79;99132.21;67992;1275;1016406;-74
2023/12/19 10:13:24;;;;;;;;;;;;;;;14.79;50.02;99130.02;68044;1275;1016817;-75
2023/12/19 10:16:32;;;;;;;;;;;;;;;14.99;48.03;99124.86;68051;1275;1016459;-75
2023/12/19 10:19:38;;;;;;;;;;;;;;;14.95;44.75;99118.63;68043;1275;1016344;-75
2023/12/19 10:22:42;;;;;;;;;;;;;;;14.77;42.14;99116.97;68035;1275;1017526;-74
2023/12/19 10:25:45;;;;;;;;;;;;;;;14.63;43.23;99104.98;68030;1275;1016110;-75
2023/12/19 10:28:47;;;;;;;;;;;;;;;14.60;43.41;99107.67;68034;1275;1017538;-75
2023/12/19 10:31:50;;;;;;;;;;;;;;;14.61;43.22;99089.98;68038;1275;1016320;-75
2023/12/19 10:34:53;;;;;;;;;;;;;;;14.86;43.19;99081.67;68034;1275;1016283;-75
2023/12/19 10:37:55;;;;;;;;;;;;;;;14.84;41.72;99067.55;67997;1275;1016589;-75
2023/12/19 10:40:58;;;;;;;;;;;;;;;14.77;41.42;99062.61;68032;1275;1016069;-75
2023/12/19 10:44:01;;;;;;;;;;;;;;;14.98;41.78;99037.93;68042;1275;1016225;-75
2023/12/19 10:47:08;;;;;;;;;;;;;;;15.19;43.00;99023.90;67987;1275;1016803;-75
2023/12/19 10:50:10;;;;;;;;;;;;;;;15.56;42.34;99008.09;68039;1275;1016369;-75
2023/12/19 10:53:13;;;;;;;;;;;;;;;15.76;43.46;98998.52;68015;1275;1017307;-75
2023/12/19 10:56:16;;;;;;;;;;;;;;;15.77;42.40;98983.92;68038;1275;1016497;-74
2023/12/19 10:59:19;;;;;;;;;;;;;;;15.94;42.82;98988.96;68005;1275;1018200;-75
2023/12/19 11:02:22;;;;;;;;;;;;;;;16.10;43.59;98997.73;67984;1275;1016454;-75
2023/12/19 11:05:24;;;;;;;;;;;;;;;16.18;42.71;98995.52;68069;1275;1017555;-74
2023/12/19 11:08:27;;;;;;;;;;;;;;;16.25;42.73;98992.98;68039;1275;1016720;-75
2023/12/19 11:11:29;;;;;;;;;;;;;;;15.98;41.85;98999.36;67980;1275;1016273;-75
2023/12/19 11:14:32;;;;;;;;;;;;;;;15.79;42.57;99003.36;68016;1275;1016231;-75
2023/12/19 11:17:35;;;;;;;;;;;;;;;16.01;42.11;99007.12;68045;1275;1016254;-75
2023/12/19 11:20:37;;;;;;;;;;;;;;;16.11;42.32;99007.13;68032;1275;1016385;-75
2023/12/19 11:23:40;;;;;;;;;;;;;;;16.14;39.56;98986.97;68002;1275;1016695;-75
2023/12/19 11:26:42;;;;;;;;;;;;;;;16.07;40.12;98982.93;67993;1275;1016410;-75
2023/12/19 11:29:46;;;;;;;;;;;;;;;16.05;39.96;98968.11;67973;1275;1015854;-75
2023/12/19 11:32:48;;;;;;;;;;;;;;;16.03;39.32;98968.52;67988;1275;1015962;-74
2023/12/19 11:35:51;;;;;;;;;;;;;;;16.13;39.67;98962.02;68025;1275;1016478;-75
2023/12/19 11:38:54;;;;;;;;;;;;;;;15.91;39.80;98965.69;68001;1275;1016301;-75
2023/12/19 11:41:56;;;;;;;;;;;;;;;15.74;40.31;98962.17;67986;1275;1016437;-74
2023/12/19 11:45:00;;;;;;;;;;;;;;;15.42;39.86;98965.38;67983;1275;1016303;-75
2023/12/19 11:48:02;;;;;;;;;;;;;;;15.23;40.55;98964.04;67987;1275;1016406;-75
2023/12/19 11:51:07;;;;;;;;;;;;;;;15.20;40.89;98969.33;68053;1275;1018857;-75
2023/12/19 11:54:12;;;;;;;;;;;;;;;15.30;41.34;98958.02;68032;1275;1016419;-75
2023/12/19 11:57:16;;;;;;;;;;;;;;;15.70;41.19;98962.63;68040;1275;1018708;-75
2023/12/19 12:00:19;;;;;;;;;;;;;;;15.61;41.74;98960.71;68029;1275;1016469;-74
2023/12/19 12:03:25;;;;;;;;;;;;;;;15.64;39.10;98956.77;68009;1275;1016368;-75
2023/12/19 12:06:27;;;;;;;;;;;;;;;15.45;37.82;98957.38;68015;1275;1016808;-75
2023/12/19 12:09:30;;;;;;;;;;;;;;;15.09;37.89;98953.66;68047;1275;1016234;-75
2023/12/19 12:12:34;;;;;;;;;;;;;;;14.80;38.10;98953.77;68024;1275;1016503;-75
2023/12/19 12:15:36;;;;;;;;;;;;;;;14.56;38.51;98944.96;68049;1275;1016577;-75
2023/12/19 12:18:39;;;;;;;;;;;;;;;14.41;38.23;98949.81;67988;1275;1016413;-75
2023/12/19 12:21:42;;;;;;;;;;;;;;;14.36;38.57;98932.04;68062;1275;1016201;-75
2023/12/19 12:24:44;;;;;;;;;;;;;;;14.32;39.34;98920.77;68025;1275;1018778;-75
2023/12/19 12:27:48;;;;;;;;;;;;;;;14.39;38.79;98912.66;68007;1275;1016392;-75
2023/12/19 12:30:52;;;;;;;;;;;;;;;14.49;39.61;98899.07;68011;1275;1016442;-75
2023/12/19 12:33:57;;;;;;;;;;;;;;;14.53;39.52;98890.97;68013;1275;1016314;-75
2023/12/19 12:37:00;;;;;;;;;;;;;;;14.54;40.76;98885.66;68046;1275;1017538;-75
2023/12/19 12:40:04;;;;;;;;;;;;;;;14.64;40.94;98876.00;67979;1275;1016325;-75
2023/12/19 12:43:07;;;;;;;;;;;;;;;14.57;41.56;98871.69;68025;1275;1016423;-75
2023/12/19 12:46:11;;;;;;;;;;;;;;;14.64;42.64;98860.27;68040;1275;1017503;-75
2023/12/19 12:49:14;;;;;;;;;;;;;;;14.68;42.46;98851.74;68055;1275;1016212;-75
2023/12/19 12:52:16;;;;;;;;;;;;;;;14.54;40.11;98854.48;68043;1275;1016350;-75
2023/12/19 12:55:20;;;;;;;;;;;;;;;14.50;41.30;98852.33;68037;1275;1019303;-75
2023/12/19 12:58:23;;;;;;;;;;;;;;;14.51;40.75;98849.30;68028;1275;1015973;-76
2023/12/19 13:01:25;;;;;;;;;;;;;;;14.41;40.93;98849.40;68024;1275;1016492;-75
2023/12/19 13:04:29;;;;;;;;;;;;;;;14.21;42.02;98840.79;67989;1275;1016702;-75
2023/12/19 13:07:33;;;;;;;;;;;;;;;14.17;41.98;98842.58;68036;1275;1017558;-75
2023/12/19 13:10:35;;;;;;;;;;;;;;;14.05;42.64;98841.47;68035;1275;1016451;-75
2023/12/19 13:13:38;;;;;;;;;;;;;;;14.04;43.30;98837.50;68019;1275;1016289;-76
2023/12/19 13:16:41;;;;;;;;;;;;;;;13.98;44.11;98832.05;68029;1275;1016857;-75
2023/12/19 13:19:44;;;;;;;;;;;;;;;14.07;44.37;98823.41;68006;1275;1016180;-75
2023/12/19 13:22:47;;;;;;;;;;;;;;;14.14;44.64;98811.80;68002;1275;1016460;-75
2023/12/19 13:25:50;;;;;;;;;;;;;;;14.11;44.67;98805.18;68044;1275;1016211;-75
2023/12/19 13:28:53;;;;;;;;;;;;;;;14.08;44.74;98799.64;68064;1275;1016065;-75
2023/12/19 13:31:57;;;;;;;;;;;;;;;14.06;44.79;98804.85;67955;1275;1016237;-76
2023/12/19 13:35:02;;;;;;;;;;;;;;;14.12;44.40;98808.83;68037;1275;1016448;-75
2023/12/19 13:38:06;;;;;;;;;;;;;;;14.02;44.55;98802.19;67989;1275;1016330;-76
2023/12/19 13:41:08;;;;;;;;;;;;;;;13.86;45.04;98798.28;67993;1275;1016303;-76
2023/12/19 13:44:11;;;;;;;;;;;;;;;13.63;45.19;98790.34;68020;1275;1016441;-76
2023/12/19 13:47:14;;;;;;;;;;;;;;;13.44;45.61;98798.88;68028;1275;1016492;-76
2023/12/19 13:50:17;;;;;;;;;;;;;;;13.44;45.50;98795.92;67989;1275;1016389;-76
2023/12/19 13:53:19;;;;;;;;;;;;;;;13.32;45.92;98792.05;68030;1275;1016369;-76
2023/12/19 13:56:22;;;;;;;;;;;;;;;13.36;45.53;98785.08;68016;1275;1016208;-75
2023/12/19 13:59:24;;;;;;;;;;;;;;;13.29;45.80;98773.61;67966;1275;1016282;-76
2023/12/19 14:02:28;;;;;;;;;;;;;;;13.26;46.19;98769.27;67999;1275;1016383;-75
2023/12/19 14:05:30;;;;;;;;;;;;;;;13.06;46.46;98766.48;67975;1275;1016379;-76
2023/12/19 14:08:33;;;;;;;;;;;;;;;12.93;46.78;98761.81;68051;1275;1016810;-76
2023/12/19 14:11:36;;;;;;;;;;;;;;;12.95;46.47;98754.11;68039;1275;1016213;-75
2023/12/19 14:14:38;;;;;;;;;;;;;;;12.93;46.59;98751.79;68007;1275;1016428;-74
2023/12/19 14:17:41;;;;;;;;;;;;;;;12.87;46.86;98735.73;68019;1275;1016483;-75
2023/12/19 14:20:44;;;;;;;;;;;;;;;12.78;46.83;98723.75;68049;1275;1016302;-76
2023/12/19 14:23:51;;;;;;;;;;;;;;;12.80;47.05;98721.44;68044;1275;1016953;-75
2023/12/19 14:26:54;;;;;;;;;;;;;;;12.86;46.63;98715.48;68021;1275;1017702;-76
2023/12/19 14:29:57;;;;;;;;;;;;;;;12.89;46.37;98715.42;68020;1275;1016453;-76
2023/12/19 14:33:01;;;;;;;;;;;;;;;12.73;46.69;98716.37;68020;1275;1016092;-75
2023/12/19 14:36:08;;;;;;;;;;;;;;;12.63;47.03;98710.61;68065;1275;1016471;-76
2023/12/19 14:39:12;;;;;;;;;;;;;;;12.47;47.16;98706.61;68038;1275;1016332;-76
2023/12/19 14:42:15;;;;;;;;;;;;;;;12.38;47.06;98713.24;68006;1275;1016461;-76
2023/12/19 14:45:18;;;;;;;;;;;;;;;12.16;46.82;98707.55;68010;1275;1016494;-76
2023/12/19 14:48:22;;;;;;;;;;;;;;;11.89;47.94;98704.63;68051;1275;1016390;-76
2023/12/19 14:51:26;;;;;;;;;;;;;;;11.85;47.42;98695.15;68031;1275;1016123;-76
2023/12/19 14:54:28;;;;;;;;;;;;;;;11.95;47.52;98699.73;68067;1275;1016336;-75
2023/12/19 14:57:31;;;;;;;;;;;;;;;11.87;47.68;98688.85;68016;1275;1016396;-76
2023/12/19 15:00:34;;;;;;;;;;;;;;;11.83;47.62;98684.60;68057;1275;1016411;-76
2023/12/19 15:03:36;;;;;;;;;;;;;;;11.85;47.27;98680.39;68048;1275;1015947;-76
2023/12/19 15:06:39;;;;;;;;;;;;;;;12.00;47.36;98683.62;68007;1275;1017641;-76
2023/12/19 15:09:41;;;;;;;;;;;;;;;11.95;47.10;98679.91;68049;1275;1016310;-76
2023/12/19 15:12:44;;;;;;;;;;;;;;;11.93;47.19;98675.66;68032;1275;1016306;-76
2023/12/19 15:15:47;;;;;;;;;;;;;;;11.90;46.89;98673.75;68010;1275;1016276;-76
2023/12/19 15:18:51;;;;;;;;;;;;;;;11.86;47.14;98671.71;68004;1275;1016080;-74
2023/12/19 15:21:55;;;;;;;;;;;;;;;11.79;47.42;98663.29;68014;1275;1018125;-76
2023/12/19 15:24:58;;;;;;;;;;;;;;;11.74;46.97;98653.80;68070;1275;1016420;-76
2023/12/19 15:28:00;;;;;;;;;;;;;;;11.66;47.42;98645.58;68055;1275;1016855;-75
2023/12/19 15:31:04;;;;;;;;;;;;;;;11.69;47.24;98644.02;67976;1275;1016280;-76